Hovedside
METAR-TAF:

METAR-TAF

Lufthavner :

Kirkenes lufthavn. Høybuktmoen

Kirkenes, Norge

breddegrad: 69-44N, lengdegrad: 029-54E, høyde over havet: 9 m

Gjeldene værobservasjon

Denne rapporten ble laget for 35 minutter siden, klokken 09:20 UTC
Vind 13 kt fra Sørvest
Temperatur -4°C
Luftfuktighet 74%
Trykk 1022 hPa
Sikt 10 km eller mer
ingen skyer under 1500 m og ingen bygeskyer

METAR: ENKR 130920Z 23013KT CAVOK M04/M08 Q1022 RMK WIND 731FT 22017KT

Tid: 10:55 (09:55 UTC)

Varsel

Denne rapporten ble laget for 1 time og 55 minutter siden, klokken 08:00 UTC
Varsel gyldig fra 13. klokken 09 UTC til 13. klokken 18 UTC
Vind 8 kt fra Sørvest
Sikt 10 km eller mer
Få skyer i en høyde av 2000 ft
Spredte skyer i en høyde av 5000 ft
Midlertidig
fra 13. klokken 09 UTC til 13. klokken 18 UTC
Vind 18 kt fra Sørvest

TAF: ENKR 130800Z 1309/1318 22008KT 9999 FEW020 SCT050 TEMPO 1309/1318 23018KT

Værobservasjoner og værvarsel for over 4000 flyplasser (METAR- og TAF-rapporter).

Tilgjengelige stasjoner er representert av de røde og gule prikkene på kartet.

Hold musepekeren over prikken for å se navnet på stasjonen.

Klikk så for å se værobservasjoner og -varsler.

For å forandre kartet kan du klikke på den grønne knappen med svart kryss for å zoome inn, på den grønne knappen med strek for å zoome ut, eller på de grønne pilene for å se tilstøtende kart.


METAR-TAF: